sensor_id;sensor_type;location;lat;lon;timestamp;pressure;altitude;pressure_sealevel;temperature;humidity
64298;BME280;50639;53.270;7.956;2023-05-01T00:02:18;102008.38;;;7.06;69.58
64298;BME280;50639;53.270;7.956;2023-05-01T00:04:43;102007.66;;;7.04;69.95
64298;BME280;50639;53.270;7.956;2023-05-01T00:07:09;102007.25;;;6.99;69.61
64298;BME280;50639;53.270;7.956;2023-05-01T00:09:34;101995.63;;;6.90;69.80
64298;BME280;50639;53.270;7.956;2023-05-01T00:12:00;101997.72;;;6.87;69.48
64298;BME280;50639;53.270;7.956;2023-05-01T00:14:27;101988.63;;;6.79;70.29
64298;BME280;50639;53.270;7.956;2023-05-01T00:17:18;101984.28;;;6.78;70.12
64298;BME280;50639;53.270;7.956;2023-05-01T00:20:08;101984.84;;;6.72;70.40
64298;BME280;50639;53.270;7.956;2023-05-01T00:22:35;101985.81;;;6.71;70.72
64298;BME280;50639;53.270;7.956;2023-05-01T00:25:00;101977.44;;;6.66;70.84
64298;BME280;50639;53.270;7.956;2023-05-01T00:27:26;101980.81;;;6.68;70.03
64298;BME280;50639;53.270;7.956;2023-05-01T00:29:51;101974.66;;;6.68;70.37
64298;BME280;50639;53.270;7.956;2023-05-01T00:32:17;101975.19;;;6.71;70.62
64298;BME280;50639;53.270;7.956;2023-05-01T00:34:42;101974.94;;;6.74;70.35
64298;BME280;50639;53.270;7.956;2023-05-01T00:37:10;101963.72;;;6.71;70.11
64298;BME280;50639;53.270;7.956;2023-05-01T00:39:36;101962.88;;;6.70;70.46
64298;BME280;50639;53.270;7.956;2023-05-01T00:42:01;101964.16;;;6.66;70.27
64298;BME280;50639;53.270;7.956;2023-05-01T00:44:26;101962.88;;;6.61;70.62
64298;BME280;50639;53.270;7.956;2023-05-01T00:46:52;101965.25;;;6.54;70.77
64298;BME280;50639;53.270;7.956;2023-05-01T00:49:19;101956.00;;;6.49;70.78
64298;BME280;50639;53.270;7.956;2023-05-01T00:51:47;101950.97;;;6.46;70.94
64298;BME280;50639;53.270;7.956;2023-05-01T00:54:13;101951.69;;;6.48;71.87
64298;BME280;50639;53.270;7.956;2023-05-01T00:56:39;101950.97;;;6.46;70.85
64298;BME280;50639;53.270;7.956;2023-05-01T00:59:04;101953.75;;;6.44;71.54
64298;BME280;50639;53.270;7.956;2023-05-01T01:01:30;101946.38;;;6.48;70.91
64298;BME280;50639;53.270;7.956;2023-05-01T01:03:55;101938.81;;;6.43;70.84
64298;BME280;50639;53.270;7.956;2023-05-01T01:09:08;101937.66;;;6.36;71.22
64298;BME280;50639;53.270;7.956;2023-05-01T01:12:05;101933.88;;;6.29;71.91
64298;BME280;50639;53.270;7.956;2023-05-01T01:14:38;101924.38;;;6.26;71.88
64298;BME280;50639;53.270;7.956;2023-05-01T01:17:14;101919.06;;;6.26;71.01
64298;BME280;50639;53.270;7.956;2023-05-01T01:22:14;101917.22;;;6.17;72.18
64298;BME280;50639;53.270;7.956;2023-05-01T01:33:02;101900.03;;;6.12;72.30
64298;BME280;50639;53.270;7.956;2023-05-01T01:35:37;101900.19;;;6.10;72.70
64298;BME280;50639;53.270;7.956;2023-05-01T01:38:15;101896.81;;;6.08;72.06
64298;BME280;50639;53.270;7.956;2023-05-01T01:40:54;101895.13;;;6.07;72.49
64298;BME280;50639;53.270;7.956;2023-05-01T01:43:21;101884.22;;;6.00;73.07
64298;BME280;50639;53.270;7.956;2023-05-01T01:45:54;101892.06;;;6.02;72.65
64298;BME280;50639;53.270;7.956;2023-05-01T01:48:30;101881.56;;;6.00;72.50
64298;BME280;50639;53.270;7.956;2023-05-01T01:50:58;101882.72;;;5.98;72.28
64298;BME280;50639;53.270;7.956;2023-05-01T01:53:25;101877.78;;;5.93;73.06
64298;BME280;50639;53.270;7.956;2023-05-01T01:55:54;101870.81;;;5.92;72.69
64298;BME280;50639;53.270;7.956;2023-05-01T01:58:21;101869.25;;;5.90;73.15
64298;BME280;50639;53.270;7.956;2023-05-01T02:00:52;101869.63;;;5.85;73.01
64298;BME280;50639;53.270;7.956;2023-05-01T02:03:20;101860.00;;;5.84;73.02
64298;BME280;50639;53.270;7.956;2023-05-01T02:05:47;101851.34;;;5.82;72.86
64298;BME280;50639;53.270;7.956;2023-05-01T02:08:14;101848.25;;;5.77;73.47
64298;BME280;50639;53.270;7.956;2023-05-01T02:10:42;101851.16;;;5.74;72.64
64298;BME280;50639;53.270;7.956;2023-05-01T02:13:09;101843.94;;;5.76;72.86
64298;BME280;50639;53.270;7.956;2023-05-01T02:15:37;101853.56;;;5.77;73.27
64298;BME280;50639;53.270;7.956;2023-05-01T02:18:05;101845.03;;;5.74;73.19
64298;BME280;50639;53.270;7.956;2023-05-01T02:20:32;101856.88;;;5.70;72.93
64298;BME280;50639;53.270;7.956;2023-05-01T02:22:58;101848.75;;;5.61;73.05
64298;BME280;50639;53.270;7.956;2023-05-01T02:25:26;101848.31;;;5.56;72.87
64298;BME280;50639;53.270;7.956;2023-05-01T02:27:55;101841.75;;;5.51;74.67
64298;BME280;50639;53.270;7.956;2023-05-01T02:30:22;101844.91;;;5.45;74.31
64298;BME280;50639;53.270;7.956;2023-05-01T02:32:47;101843.13;;;5.45;75.16
64298;BME280;50639;53.270;7.956;2023-05-01T02:35:13;101841.16;;;5.47;73.97
64298;BME280;50639;53.270;7.956;2023-05-01T02:37:41;101819.53;;;5.42;74.19
64298;BME280;50639;53.270;7.956;2023-05-01T02:40:07;101821.91;;;5.45;74.29
64298;BME280;50639;53.270;7.956;2023-05-01T02:42:35;101815.78;;;5.45;74.00
64298;BME280;50639;53.270;7.956;2023-05-01T02:45:05;101817.16;;;5.49;74.48
64298;BME280;50639;53.270;7.956;2023-05-01T02:47:34;101821.50;;;5.50;74.29
64298;BME280;50639;53.270;7.956;2023-05-01T02:50:01;101813.69;;;5.48;73.47
64298;BME280;50639;53.270;7.956;2023-05-01T02:52:27;101803.50;;;5.44;74.54
64298;BME280;50639;53.270;7.956;2023-05-01T02:55:07;101808.94;;;5.42;74.41
64298;BME280;50639;53.270;7.956;2023-05-01T02:57:33;101805.56;;;5.40;74.43
64298;BME280;50639;53.270;7.956;2023-05-01T02:59:59;101802.47;;;5.35;74.36
64298;BME280;50639;53.270;7.956;2023-05-01T03:02:25;101793.56;;;5.36;74.57
64298;BME280;50639;53.270;7.956;2023-05-01T03:04:50;101787.09;;;5.29;75.54
64298;BME280;50639;53.270;7.956;2023-05-01T03:07:16;101785.63;;;5.36;74.87
64298;BME280;50639;53.270;7.956;2023-05-01T03:09:41;101784.50;;;5.39;74.95
64298;BME280;50639;53.270;7.956;2023-05-01T03:12:07;101785.75;;;5.35;74.47
64298;BME280;50639;53.270;7.956;2023-05-01T03:14:32;101777.66;;;5.36;74.91
64298;BME280;50639;53.270;7.956;2023-05-01T03:16:58;101776.97;;;5.34;74.82
64298;BME280;50639;53.270;7.956;2023-05-01T03:19:24;101774.00;;;5.27;75.32
64298;BME280;50639;53.270;7.956;2023-05-01T03:21:49;101764.50;;;5.25;76.08
64298;BME280;50639;53.270;7.956;2023-05-01T03:24:15;101766.75;;;5.29;74.61
64298;BME280;50639;53.270;7.956;2023-05-01T03:26:41;101765.06;;;5.28;74.93
64298;BME280;50639;53.270;7.956;2023-05-01T03:29:07;101759.94;;;5.27;75.55
64298;BME280;50639;53.270;7.956;2023-05-01T03:31:33;101753.06;;;5.24;75.21
64298;BME280;50639;53.270;7.956;2023-05-01T03:33:59;101747.72;;;5.15;76.09
64298;BME280;50639;53.270;7.956;2023-05-01T03:36:24;101741.22;;;5.19;75.80
64298;BME280;50639;53.270;7.956;2023-05-01T03:38:51;101736.88;;;5.18;75.17
64298;BME280;50639;53.270;7.956;2023-05-01T03:41:45;101738.22;;;5.12;75.12
64298;BME280;50639;53.270;7.956;2023-05-01T03:44:20;101732.38;;;5.09;74.76
64298;BME280;50639;53.270;7.956;2023-05-01T03:46:46;101726.75;;;5.02;75.99
64298;BME280;50639;53.270;7.956;2023-05-01T03:49:18;101725.09;;;5.01;75.46
64298;BME280;50639;53.270;7.956;2023-05-01T03:51:46;101723.25;;;5.02;75.68
64298;BME280;50639;53.270;7.956;2023-05-01T03:54:12;101725.22;;;5.00;75.74
64298;BME280;50639;53.270;7.956;2023-05-01T03:57:03;101716.94;;;4.93;75.39
64298;BME280;50639;53.270;7.956;2023-05-01T03:59:29;101712.50;;;4.93;75.76
64298;BME280;50639;53.270;7.956;2023-05-01T04:01:54;101710.97;;;4.91;75.58
64298;BME280;50639;53.270;7.956;2023-05-01T04:04:20;101722.00;;;4.96;75.88
64298;BME280;50639;53.270;7.956;2023-05-01T04:06:53;101715.59;;;4.99;75.69
64298;BME280;50639;53.270;7.956;2023-05-01T04:09:19;101715.19;;;5.03;75.67
64298;BME280;50639;53.270;7.956;2023-05-01T04:11:44;101716.75;;;5.06;75.83
64298;BME280;50639;53.270;7.956;2023-05-01T04:14:11;101724.28;;;5.10;75.24
64298;BME280;50639;53.270;7.956;2023-05-01T04:16:36;101718.72;;;5.13;75.18
64298;BME280;50639;53.270;7.956;2023-05-01T04:19:02;101722.09;;;5.15;74.84
64298;BME280;50639;53.270;7.956;2023-05-01T04:21:28;101718.19;;;5.19;75.00
64298;BME280;50639;53.270;7.956;2023-05-01T04:23:54;101721.69;;;5.20;75.49
64298;BME280;50639;53.270;7.956;2023-05-01T04:26:20;101719.75;;;5.22;74.84
64298;BME280;50639;53.270;7.956;2023-05-01T04:28:46;101719.59;;;5.23;74.86
64298;BME280;50639;53.270;7.956;2023-05-01T04:31:14;101711.41;;;5.26;74.52
64298;BME280;50639;53.270;7.956;2023-05-01T04:33:40;101713.25;;;5.36;74.79
64298;BME280;50639;53.270;7.956;2023-05-01T04:36:05;101708.63;;;5.38;74.67
64298;BME280;50639;53.270;7.956;2023-05-01T04:38:31;101707.16;;;5.45;75.04
64298;BME280;50639;53.270;7.956;2023-05-01T04:40:58;101710.22;;;5.50;75.12
64298;BME280;50639;53.270;7.956;2023-05-01T04:43:24;101699.19;;;5.54;74.90
64298;BME280;50639;53.270;7.956;2023-05-01T04:45:49;101702.41;;;5.58;74.25
64298;BME280;50639;53.270;7.956;2023-05-01T04:48:15;101698.38;;;5.63;75.27
64298;BME280;50639;53.270;7.956;2023-05-01T04:50:40;101701.59;;;5.67;74.54
64298;BME280;50639;53.270;7.956;2023-05-01T04:53:06;101701.63;;;5.77;73.61
64298;BME280;50639;53.270;7.956;2023-05-01T04:55:34;101694.91;;;5.82;73.66
64298;BME280;50639;53.270;7.956;2023-05-01T04:58:09;101695.81;;;5.92;73.25
64298;BME280;50639;53.270;7.956;2023-05-01T05:00:35;101694.44;;;5.98;73.24
64298;BME280;50639;53.270;7.956;2023-05-01T05:03:01;101694.56;;;6.06;73.47
64298;BME280;50639;53.270;7.956;2023-05-01T05:05:26;101684.75;;;6.16;71.78
64298;BME280;50639;53.270;7.956;2023-05-01T05:07:52;101687.13;;;6.29;72.50
64298;BME280;50639;53.270;7.956;2023-05-01T05:10:32;101683.63;;;6.38;72.38
64298;BME280;50639;53.270;7.956;2023-05-01T05:13:11;101689.47;;;6.51;71.80
64298;BME280;50639;53.270;7.956;2023-05-01T05:15:38;101681.34;;;6.62;71.15
64298;BME280;50639;53.270;7.956;2023-05-01T05:18:05;101680.50;;;6.71;70.73
64298;BME280;50639;53.270;7.956;2023-05-01T05:20:31;101686.47;;;6.83;70.21
64298;BME280;50639;53.270;7.956;2023-05-01T05:22:57;101677.78;;;6.91;70.15
64298;BME280;50639;53.270;7.956;2023-05-01T05:25:23;101682.78;;;7.03;70.03
64298;BME280;50639;53.270;7.956;2023-05-01T05:27:49;101684.69;;;7.11;69.89
64298;BME280;50639;53.270;7.956;2023-05-01T05:30:15;101679.38;;;7.11;70.82
64298;BME280;50639;53.270;7.956;2023-05-01T05:32:41;101678.22;;;7.13;69.33
64298;BME280;50639;53.270;7.956;2023-05-01T05:35:07;101679.72;;;7.26;69.71
64298;BME280;50639;53.270;7.956;2023-05-01T05:37:33;101683.41;;;7.42;69.29
64298;BME280;50639;53.270;7.956;2023-05-01T05:39:59;101678.03;;;7.52;69.36
64298;BME280;50639;53.270;7.956;2023-05-01T05:42:25;101676.16;;;7.62;69.09
64298;BME280;50639;53.270;7.956;2023-05-01T05:44:52;101676.22;;;7.70;67.90
64298;BME280;50639;53.270;7.956;2023-05-01T05:47:17;101675.31;;;7.79;68.24
64298;BME280;50639;53.270;7.956;2023-05-01T05:49:43;101674.72;;;7.85;68.22
64298;BME280;50639;53.270;7.956;2023-05-01T05:52:08;101673.66;;;7.96;67.88
64298;BME280;50639;53.270;7.956;2023-05-01T05:54:35;101668.69;;;8.01;67.61
64298;BME280;50639;53.270;7.956;2023-05-01T05:57:00;101664.13;;;8.11;67.08
64298;BME280;50639;53.270;7.956;2023-05-01T05:59:28;101667.53;;;8.21;66.22
64298;BME280;50639;53.270;7.956;2023-05-01T06:01:54;101669.28;;;8.30;66.04
64298;BME280;50639;53.270;7.956;2023-05-01T06:04:20;101664.44;;;8.44;65.30
64298;BME280;50639;53.270;7.956;2023-05-01T06:06:45;101662.44;;;8.46;65.30
64298;BME280;50639;53.270;7.956;2023-05-01T06:09:12;101650.06;;;8.62;65.56
64298;BME280;50639;53.270;7.956;2023-05-01T06:11:39;101657.94;;;8.72;65.20
64298;BME280;50639;53.270;7.956;2023-05-01T06:14:05;101654.66;;;8.78;62.06
64298;BME280;50639;53.270;7.956;2023-05-01T06:16:30;101646.75;;;8.94;64.22
64298;BME280;50639;53.270;7.956;2023-05-01T06:19:21;101652.66;;;9.14;63.93
64298;BME280;50639;53.270;7.956;2023-05-01T06:22:12;101652.50;;;9.24;62.37
64298;BME280;50639;53.270;7.956;2023-05-01T06:24:56;101655.53;;;9.21;62.02
64298;BME280;50639;53.270;7.956;2023-05-01T06:27:23;101651.22;;;9.36;61.87
64298;BME280;50639;53.270;7.956;2023-05-01T06:29:49;101650.09;;;9.38;61.40
64298;BME280;50639;53.270;7.956;2023-05-01T06:32:15;101650.44;;;9.52;61.21
64298;BME280;50639;53.270;7.956;2023-05-01T06:34:41;101645.78;;;9.62;61.03
64298;BME280;50639;53.270;7.956;2023-05-01T06:37:07;101645.81;;;9.70;60.29
64298;BME280;50639;53.270;7.956;2023-05-01T06:39:32;101640.00;;;9.82;59.72
64298;BME280;50639;53.270;7.956;2023-05-01T06:41:59;101642.34;;;9.94;60.22
64298;BME280;50639;53.270;7.956;2023-05-01T06:44:34;101639.00;;;10.00;59.66
64298;BME280;50639;53.270;7.956;2023-05-01T06:47:00;101639.31;;;10.13;59.30
64298;BME280;50639;53.270;7.956;2023-05-01T06:49:26;101637.03;;;10.26;60.10
64298;BME280;50639;53.270;7.956;2023-05-01T06:51:52;101633.81;;;10.39;59.42
64298;BME280;50639;53.270;7.956;2023-05-01T06:54:17;101629.28;;;10.55;57.47
64298;BME280;50639;53.270;7.956;2023-05-01T06:56:43;101627.25;;;10.66;58.23
64298;BME280;50639;53.270;7.956;2023-05-01T06:59:08;101630.41;;;10.77;58.40
64298;BME280;50639;53.270;7.956;2023-05-01T07:01:34;101626.38;;;10.89;56.86
64298;BME280;50639;53.270;7.956;2023-05-01T07:03:59;101616.78;;;11.03;57.41
64298;BME280;50639;53.270;7.956;2023-05-01T07:06:25;101618.44;;;11.04;56.23
64298;BME280;50639;53.270;7.956;2023-05-01T07:08:51;101615.63;;;11.06;54.99
64298;BME280;50639;53.270;7.956;2023-05-01T07:11:17;101615.53;;;11.22;54.38
64298;BME280;50639;53.270;7.956;2023-05-01T07:13:42;101617.88;;;11.25;54.68
64298;BME280;50639;53.270;7.956;2023-05-01T07:16:08;101606.63;;;11.29;53.27
64298;BME280;50639;53.270;7.956;2023-05-01T07:18:33;101609.19;;;11.23;53.25
64298;BME280;50639;53.270;7.956;2023-05-01T07:20:59;101611.53;;;11.49;54.09
64298;BME280;50639;53.270;7.956;2023-05-01T07:23:24;101601.84;;;11.48;53.39
64298;BME280;50639;53.270;7.956;2023-05-01T07:25:51;101604.47;;;11.79;52.92
64298;BME280;50639;53.270;7.956;2023-05-01T07:28:17;101598.13;;;11.80;50.87
64298;BME280;50639;53.270;7.956;2023-05-01T07:30:44;101602.28;;;11.82;51.65
64298;BME280;50639;53.270;7.956;2023-05-01T07:33:09;101598.53;;;11.91;50.47
64298;BME280;50639;53.270;7.956;2023-05-01T07:35:36;101588.59;;;12.00;52.35
64298;BME280;50639;53.270;7.956;2023-05-01T07:38:01;101590.94;;;12.18;51.90
64298;BME280;50639;53.270;7.956;2023-05-01T07:40:27;101589.66;;;12.28;51.53
64298;BME280;50639;53.270;7.956;2023-05-01T07:42:52;101592.75;;;12.40;51.22
64298;BME280;50639;53.270;7.956;2023-05-01T07:45:18;101585.97;;;12.44;49.97
64298;BME280;50639;53.270;7.956;2023-05-01T07:47:43;101587.91;;;12.50;49.62
64298;BME280;50639;53.270;7.956;2023-05-01T07:50:10;101590.81;;;12.63;49.44
64298;BME280;50639;53.270;7.956;2023-05-01T07:52:36;101597.34;;;12.75;49.25
64298;BME280;50639;53.270;7.956;2023-05-01T07:55:02;101589.59;;;12.66;49.74
64298;BME280;50639;53.270;7.956;2023-05-01T07:57:28;101588.22;;;12.55;49.39
64298;BME280;50639;53.270;7.956;2023-05-01T07:59:55;101588.94;;;12.78;50.51
64298;BME280;50639;53.270;7.956;2023-05-01T08:02:21;101591.25;;;12.81;49.57
64298;BME280;50639;53.270;7.956;2023-05-01T08:04:47;101590.41;;;12.96;49.31
64298;BME280;50639;53.270;7.956;2023-05-01T08:07:13;101585.56;;;13.06;49.73
64298;BME280;50639;53.270;7.956;2023-05-01T08:09:39;101594.09;;;13.24;50.03
64298;BME280;50639;53.270;7.956;2023-05-01T08:12:04;101583.72;;;13.21;48.28
64298;BME280;50639;53.270;7.956;2023-05-01T08:14:30;101579.25;;;13.28;49.30
64298;BME280;50639;53.270;7.956;2023-05-01T08:16:55;101583.72;;;13.21;49.41
64298;BME280;50639;53.270;7.956;2023-05-01T08:19:21;101581.44;;;13.39;49.07
64298;BME280;50639;53.270;7.956;2023-05-01T08:21:47;101574.56;;;13.51;47.60
64298;BME280;50639;53.270;7.956;2023-05-01T08:24:12;101576.16;;;13.67;48.32
64298;BME280;50639;53.270;7.956;2023-05-01T08:26:38;101577.31;;;13.79;48.83
64298;BME280;50639;53.270;7.956;2023-05-01T08:29:03;101574.91;;;13.91;48.07
64298;BME280;50639;53.270;7.956;2023-05-01T08:31:29;101572.72;;;14.01;47.11
64298;BME280;50639;53.270;7.956;2023-05-01T08:33:55;101571.34;;;14.05;47.67
64298;BME280;50639;53.270;7.956;2023-05-01T08:36:20;101576.41;;;14.21;46.91
64298;BME280;50639;53.270;7.956;2023-05-01T08:38:46;101569.59;;;14.47;46.03
64298;BME280;50639;53.270;7.956;2023-05-01T08:41:20;101569.72;;;14.66;46.83
64298;BME280;50639;53.270;7.956;2023-05-01T08:43:47;101564.53;;;14.65;47.08
64298;BME280;50639;53.270;7.956;2023-05-01T08:46:20;101561.50;;;14.81;46.57
64298;BME280;50639;53.270;7.956;2023-05-01T08:48:50;101556.56;;;14.91;46.48
64298;BME280;50639;53.270;7.956;2023-05-01T08:51:17;101561.03;;;14.78;46.12
64298;BME280;50639;53.270;7.956;2023-05-01T08:53:47;101549.31;;;14.85;46.73
64298;BME280;50639;53.270;7.956;2023-05-01T08:56:15;101549.38;;;15.05;47.77
64298;BME280;50639;53.270;7.956;2023-05-01T08:58:42;101552.75;;;15.27;47.10
64298;BME280;50639;53.270;7.956;2023-05-01T09:01:14;101545.28;;;15.22;45.32
64298;BME280;50639;53.270;7.956;2023-05-01T09:03:41;101537.13;;;14.96;46.36
64298;BME280;50639;53.270;7.956;2023-05-01T09:06:09;101545.69;;;15.13;44.87
64298;BME280;50639;53.270;7.956;2023-05-01T09:08:35;101542.84;;;15.40;46.22
64298;BME280;50639;53.270;7.956;2023-05-01T09:11:02;101542.69;;;15.68;46.23
64298;BME280;50639;53.270;7.956;2023-05-01T09:13:28;101534.84;;;15.80;44.87
64298;BME280;50639;53.270;7.956;2023-05-01T09:15:53;101540.22;;;16.00;44.99
64298;BME280;50639;53.270;7.956;2023-05-01T09:18:19;101530.06;;;16.02;43.53
64298;BME280;50639;53.270;7.956;2023-05-01T09:20:45;101525.28;;;16.17;43.56
64298;BME280;50639;53.270;7.956;2023-05-01T09:23:10;101520.91;;;16.23;44.30
64298;BME280;50639;53.270;7.956;2023-05-01T09:25:35;101525.66;;;16.40;44.53
64298;BME280;50639;53.270;7.956;2023-05-01T09:28:05;101525.25;;;16.30;43.56
64298;BME280;50639;53.270;7.956;2023-05-01T09:30:38;101522.31;;;16.38;44.53
64298;BME280;50639;53.270;7.956;2023-05-01T09:33:05;101520.84;;;16.49;44.74
64298;BME280;50639;53.270;7.956;2023-05-01T09:35:31;101519.19;;;16.61;43.77
64298;BME280;50639;53.270;7.956;2023-05-01T09:37:58;101520.81;;;16.69;42.76
64298;BME280;50639;53.270;7.956;2023-05-01T09:40:26;101523.28;;;16.77;43.33
64298;BME280;50639;53.270;7.956;2023-05-01T09:42:52;101525.41;;;16.48;41.41
64298;BME280;50639;53.270;7.956;2023-05-01T09:45:20;101510.66;;;16.71;43.02
64298;BME280;50639;53.270;7.956;2023-05-01T09:47:46;101507.38;;;16.62;42.55
64298;BME280;50639;53.270;7.956;2023-05-01T09:50:31;101524.56;;;16.68;42.47
64298;BME280;50639;53.270;7.956;2023-05-01T09:53:39;101512.47;;;16.77;41.74
64298;BME280;50639;53.270;7.956;2023-05-01T09:56:32;101506.84;;;16.85;42.15
64298;BME280;50639;53.270;7.956;2023-05-01T09:59:22;101510.66;;;17.09;42.50
64298;BME280;50639;53.270;7.956;2023-05-01T10:01:49;101505.25;;;17.09;42.99
64298;BME280;50639;53.270;7.956;2023-05-01T10:04:15;101509.53;;;17.23;43.32
64298;BME280;50639;53.270;7.956;2023-05-01T10:06:41;101507.97;;;17.40;42.76
64298;BME280;50639;53.270;7.956;2023-05-01T10:09:07;101506.78;;;17.29;43.34
64298;BME280;50639;53.270;7.956;2023-05-01T10:11:52;101509.06;;;17.33;40.94
64298;BME280;50639;53.270;7.956;2023-05-01T10:14:19;101497.66;;;17.30;40.99
64298;BME280;50639;53.270;7.956;2023-05-01T10:16:45;101499.53;;;17.55;42.07
64298;BME280;50639;53.270;7.956;2023-05-01T10:19:11;101499.69;;;17.60;41.38
64298;BME280;50639;53.270;7.956;2023-05-01T10:21:37;101501.81;;;17.58;41.31
64298;BME280;50639;53.270;7.956;2023-05-01T10:24:03;101500.97;;;17.64;39.47
64298;BME280;50639;53.270;7.956;2023-05-01T10:26:31;101500.16;;;17.57;38.96
64298;BME280;50639;53.270;7.956;2023-05-01T10:28:59;101503.72;;;17.51;39.91
64298;BME280;50639;53.270;7.956;2023-05-01T10:31:26;101499.53;;;17.55;38.89
64298;BME280;50639;53.270;7.956;2023-05-01T10:33:53;101495.28;;;17.72;37.53
64298;BME280;50639;53.270;7.956;2023-05-01T10:36:25;101492.19;;;17.68;39.37
64298;BME280;50639;53.270;7.956;2023-05-01T10:38:53;101488.47;;;17.88;39.29
64298;BME280;50639;53.270;7.956;2023-05-01T10:44:23;101486.16;;;17.91;38.05
64298;BME280;50639;53.270;7.956;2023-05-01T10:46:49;101483.25;;;17.93;39.19
64298;BME280;50639;53.270;7.956;2023-05-01T10:49:14;101478.69;;;18.12;40.21
64298;BME280;50639;53.270;7.956;2023-05-01T10:51:57;101475.19;;;18.29;37.97
64298;BME280;50639;53.270;7.956;2023-05-01T10:54:47;101471.47;;;18.42;38.12
64298;BME280;50639;53.270;7.956;2023-05-01T10:57:42;101469.22;;;18.39;39.37
64298;BME280;50639;53.270;7.956;2023-05-01T11:00:09;101466.97;;;18.36;40.34
64298;BME280;50639;53.270;7.956;2023-05-01T11:02:34;101466.16;;;18.54;39.84
64298;BME280;50639;53.270;7.956;2023-05-01T11:05:00;101466.47;;;18.64;39.69
64298;BME280;50639;53.270;7.956;2023-05-01T11:07:25;101462.06;;;18.81;38.46
64298;BME280;50639;53.270;7.956;2023-05-01T11:09:53;101458.44;;;18.87;35.23
64298;BME280;50639;53.270;7.956;2023-05-01T11:17:50;101453.41;;;19.32;36.29
64298;BME280;50639;53.270;7.956;2023-05-01T11:22:52;101447.44;;;19.88;35.54
64298;BME280;50639;53.270;7.956;2023-05-01T11:25:20;101443.16;;;19.46;36.13
64298;BME280;50639;53.270;7.956;2023-05-01T11:27:51;101448.03;;;19.56;35.36
64298;BME280;50639;53.270;7.956;2023-05-01T11:30:18;101457.00;;;19.56;35.33
64298;BME280;50639;53.270;7.956;2023-05-01T11:32:45;101447.25;;;19.37;33.51
64298;BME280;50639;53.270;7.956;2023-05-01T11:37:44;101444.28;;;19.68;33.74
64298;BME280;50639;53.270;7.956;2023-05-01T11:43:05;101441.47;;;19.86;37.38
64298;BME280;50639;53.270;7.956;2023-05-01T11:45:32;101434.56;;;20.07;34.89
64298;BME280;50639;53.270;7.956;2023-05-01T11:47:58;101438.34;;;20.06;32.90
64298;BME280;50639;53.270;7.956;2023-05-01T11:50:35;101436.13;;;19.91;32.71
64298;BME280;50639;53.270;7.956;2023-05-01T11:53:02;101432.38;;;19.81;33.25
64298;BME280;50639;53.270;7.956;2023-05-01T11:55:33;101435.06;;;19.81;34.16
64298;BME280;50639;53.270;7.956;2023-05-01T11:58:00;101435.31;;;20.03;33.70
64298;BME280;50639;53.270;7.956;2023-05-01T12:00:27;101432.47;;;19.98;34.41
64298;BME280;50639;53.270;7.956;2023-05-01T12:03:22;101429.66;;;20.04;33.05
64298;BME280;50639;53.270;7.956;2023-05-01T12:05:48;101426.84;;;19.87;33.36
64298;BME280;50639;53.270;7.956;2023-05-01T12:08:21;101433.41;;;20.03;33.83
64298;BME280;50639;53.270;7.956;2023-05-01T12:10:50;101423.16;;;20.05;34.13
64298;BME280;50639;53.270;7.956;2023-05-01T12:13:16;101417.91;;;20.27;33.32
64298;BME280;50639;53.270;7.956;2023-05-01T12:16:07;101420.56;;;20.10;33.79
64298;BME280;50639;53.270;7.956;2023-05-01T12:18:59;101411.31;;;20.35;33.92
64298;BME280;50639;53.270;7.956;2023-05-01T12:22:07;101411.97;;;20.02;35.20
64298;BME280;50639;53.270;7.956;2023-05-01T12:25:18;101422.19;;;20.11;34.71
64298;BME280;50639;53.270;7.956;2023-05-01T12:28:17;101407.72;;;19.94;34.43
64298;BME280;50639;53.270;7.956;2023-05-01T12:30:47;101421.06;;;19.49;34.84
64298;BME280;50639;53.270;7.956;2023-05-01T12:33:16;101405.97;;;19.65;35.19
64298;BME280;50639;53.270;7.956;2023-05-01T12:35:44;101419.88;;;19.80;35.83
64298;BME280;50639;53.270;7.956;2023-05-01T12:38:28;101413.84;;;19.54;35.18
64298;BME280;50639;53.270;7.956;2023-05-01T12:40:56;101406.28;;;19.45;33.71
64298;BME280;50639;53.270;7.956;2023-05-01T12:43:32;101411.16;;;19.54;33.50
64298;BME280;50639;53.270;7.956;2023-05-01T12:46:00;101408.47;;;19.78;35.00
64298;BME280;50639;53.270;7.956;2023-05-01T12:48:27;101396.78;;;19.54;34.59
64298;BME280;50639;53.270;7.956;2023-05-01T12:50:54;101404.91;;;19.66;35.70
64298;BME280;50639;53.270;7.956;2023-05-01T12:53:25;101401.84;;;19.62;38.13
64298;BME280;50639;53.270;7.956;2023-05-01T12:55:53;101415.28;;;19.92;37.50
64298;BME280;50639;53.270;7.956;2023-05-01T12:58:20;101404.78;;;19.84;35.73
64298;BME280;50639;53.270;7.956;2023-05-01T13:00:54;101416.69;;;19.48;37.05
64298;BME280;50639;53.270;7.956;2023-05-01T13:03:23;101410.91;;;19.56;35.82
64298;BME280;50639;53.270;7.956;2023-05-01T13:08:31;101393.25;;;19.65;40.18
64298;BME280;50639;53.270;7.956;2023-05-01T13:11:00;101397.41;;;20.19;36.36
64298;BME280;50639;53.270;7.956;2023-05-01T13:13:33;101401.34;;;20.12;35.84
64298;BME280;50639;53.270;7.956;2023-05-01T13:16:13;101403.22;;;20.11;35.42
64298;BME280;50639;53.270;7.956;2023-05-01T13:18:46;101410.59;;;20.27;35.44
64298;BME280;50639;53.270;7.956;2023-05-01T13:21:27;101403.53;;;20.38;34.37
64298;BME280;50639;53.270;7.956;2023-05-01T13:23:57;101381.41;;;20.58;35.60
64298;BME280;50639;53.270;7.956;2023-05-01T13:28:53;101398.69;;;20.40;33.72
64298;BME280;50639;53.270;7.956;2023-05-01T13:31:19;101390.19;;;20.25;35.12
64298;BME280;50639;53.270;7.956;2023-05-01T13:33:47;101392.63;;;19.98;35.52
64298;BME280;50639;53.270;7.956;2023-05-01T13:36:15;101393.50;;;20.39;34.29
64298;BME280;50639;53.270;7.956;2023-05-01T13:38:42;101390.00;;;20.55;33.67
64298;BME280;50639;53.270;7.956;2023-05-01T13:41:17;101389.66;;;20.51;33.42